sensor_id;sensor_type;location;lat;lon;timestamp;pressure;altitude;pressure_sealevel;temperature;humidity
10946;BME280;5525;42.648;23.368;2024-01-11T00:02:07;95670.34;;;-4.95;100.00
10946;BME280;5525;42.648;23.368;2024-01-11T00:04:34;95679.84;;;-5.14;100.00
10946;BME280;5525;42.648;23.368;2024-01-11T00:07:00;95672.16;;;-5.02;100.00
10946;BME280;5525;42.648;23.368;2024-01-11T00:09:27;95658.16;;;-4.90;100.00
10946;BME280;5525;42.648;23.368;2024-01-11T00:11:54;95652.88;;;-4.90;100.00
10946;BME280;5525;42.648;23.368;2024-01-11T00:14:22;95648.44;;;-4.89;100.00
10946;BME280;5525;42.648;23.368;2024-01-11T00:16:48;95655.53;;;-4.83;100.00
10946;BME280;5525;42.648;23.368;2024-01-11T00:19:17;95659.75;;;-4.76;100.00
10946;BME280;5525;42.648;23.368;2024-01-11T00:21:43;95652.47;;;-4.80;100.00
10946;BME280;5525;42.648;23.368;2024-01-11T00:24:10;95646.81;;;-4.84;100.00
10946;BME280;5525;42.648;23.368;2024-01-11T00:26:37;95644.78;;;-4.82;100.00
10946;BME280;5525;42.648;23.368;2024-01-11T00:29:04;95648.44;;;-4.89;100.00
10946;BME280;5525;42.648;23.368;2024-01-11T00:31:30;95651.50;;;-5.12;100.00
10946;BME280;5525;42.648;23.368;2024-01-11T00:33:57;95657.16;;;-5.08;100.00
10946;BME280;5525;42.648;23.368;2024-01-11T00:36:25;95638.53;;;-5.07;100.00
10946;BME280;5525;42.648;23.368;2024-01-11T00:38:53;95641.38;;;-5.02;100.00
10946;BME280;5525;42.648;23.368;2024-01-11T00:41:20;95653.13;;;-5.11;100.00
10946;BME280;5525;42.648;23.368;2024-01-11T00:43:47;95635.09;;;-5.14;100.00
10946;BME280;5525;42.648;23.368;2024-01-11T00:46:14;95645.03;;;-5.16;100.00
10946;BME280;5525;42.648;23.368;2024-01-11T00:48:41;95644.00;;;-5.08;100.00
10946;BME280;5525;42.648;23.368;2024-01-11T00:51:07;95636.31;;;-5.10;100.00
10946;BME280;5525;42.648;23.368;2024-01-11T00:53:36;95633.28;;;-5.13;100.00
10946;BME280;5525;42.648;23.368;2024-01-11T00:56:03;95628.59;;;-5.11;100.00
10946;BME280;5525;42.648;23.368;2024-01-11T00:58:30;95622.72;;;-5.00;100.00
10946;BME280;5525;42.648;23.368;2024-01-11T01:00:56;95628.81;;;-5.13;100.00
10946;BME280;5525;42.648;23.368;2024-01-11T01:03:23;95628.03;;;-5.13;100.00
10946;BME280;5525;42.648;23.368;2024-01-11T01:05:50;95624.56;;;-5.27;100.00
10946;BME280;5525;42.648;23.368;2024-01-11T01:08:17;95628.22;;;-5.48;100.00
10946;BME280;5525;42.648;23.368;2024-01-11T01:10:45;95618.50;;;-5.28;100.00
10946;BME280;5525;42.648;23.368;2024-01-11T01:13:12;95635.13;;;-5.34;100.00
10946;BME280;5525;42.648;23.368;2024-01-11T01:15:38;95612.44;;;-5.35;100.00
10946;BME280;5525;42.648;23.368;2024-01-11T01:18:05;95624.16;;;-5.11;100.00
10946;BME280;5525;42.648;23.368;2024-01-11T01:20:32;95624.19;;;-5.31;100.00
10946;BME280;5525;42.648;23.368;2024-01-11T01:22:59;95621.94;;;-5.40;100.00
10946;BME280;5525;42.648;23.368;2024-01-11T01:25:26;95623.97;;;-5.29;100.00
10946;BME280;5525;42.648;23.368;2024-01-11T01:27:55;95616.88;;;-5.09;100.00
10946;BME280;5525;42.648;23.368;2024-01-11T01:30:22;95628.03;;;-5.13;100.00
10946;BME280;5525;42.648;23.368;2024-01-11T01:32:49;95618.69;;;-5.16;100.00
10946;BME280;5525;42.648;23.368;2024-01-11T01:35:16;95619.53;;;-5.42;100.00
10946;BME280;5525;42.648;23.368;2024-01-11T01:37:42;95621.75;;;-5.32;100.00
10946;BME280;5525;42.648;23.368;2024-01-11T01:40:10;95609.81;;;-5.48;100.00
10946;BME280;5525;42.648;23.368;2024-01-11T01:42:41;95613.25;;;-5.54;100.00
10946;BME280;5525;42.648;23.368;2024-01-11T01:45:10;95608.38;;;-5.44;100.00
10946;BME280;5525;42.648;23.368;2024-01-11T01:47:37;95590.16;;;-5.65;100.00
10946;BME280;5525;42.648;23.368;2024-01-11T01:50:07;95593.41;;;-5.56;100.00
10946;BME280;5525;42.648;23.368;2024-01-11T01:52:35;95584.91;;;-5.45;100.00
10946;BME280;5525;42.648;23.368;2024-01-11T01:55:03;95590.19;;;-5.58;100.00
10946;BME280;5525;42.648;23.368;2024-01-11T01:57:32;95584.50;;;-5.36;100.00
10946;BME280;5525;42.648;23.368;2024-01-11T02:00:01;95583.47;;;-5.41;100.00
10946;BME280;5525;42.648;23.368;2024-01-11T02:02:31;95574.38;;;-5.45;100.00
10946;BME280;5525;42.648;23.368;2024-01-11T02:05:00;95577.41;;;-5.81;100.00
10946;BME280;5525;42.648;23.368;2024-01-11T02:07:27;95578.44;;;-5.56;100.00
10946;BME280;5525;42.648;23.368;2024-01-11T02:09:55;95579.66;;;-5.39;100.00
10946;BME280;5525;42.648;23.368;2024-01-11T02:12:23;95578.44;;;-5.49;100.00
10946;BME280;5525;42.648;23.368;2024-01-11T02:14:52;95574.78;;;-5.55;100.00
10946;BME280;5525;42.648;23.368;2024-01-11T02:17:19;95572.38;;;-5.37;100.00
10946;BME280;5525;42.648;23.368;2024-01-11T02:19:49;95574.38;;;-5.45;100.00
10946;BME280;5525;42.648;23.368;2024-01-11T02:22:24;95572.94;;;-5.67;100.00
10946;BME280;5525;42.648;23.368;2024-01-11T02:24:56;95576.84;;;-5.83;100.00
10946;BME280;5525;42.648;23.368;2024-01-11T02:27:24;95574.59;;;-5.92;100.00
10946;BME280;5525;42.648;23.368;2024-01-11T02:29:50;95573.59;;;-6.04;100.00
10946;BME280;5525;42.648;23.368;2024-01-11T02:32:17;95573.19;;;-6.01;100.00
10946;BME280;5525;42.648;23.368;2024-01-11T02:34:44;95577.81;;;-5.90;100.00
10946;BME280;5525;42.648;23.368;2024-01-11T02:37:11;95580.06;;;-6.00;100.00
10946;BME280;5525;42.648;23.368;2024-01-11T02:39:39;95588.72;;;-6.06;100.00
10946;BME280;5525;42.648;23.368;2024-01-11T02:42:07;95576.28;;;-6.45;100.00
10946;BME280;5525;42.648;23.368;2024-01-11T02:44:34;95569.53;;;-6.67;100.00
10946;BME280;5525;42.648;23.368;2024-01-11T02:47:02;95577.81;;;-6.70;100.00
10946;BME280;5525;42.648;23.368;2024-01-11T02:49:29;95569.97;;;-6.63;100.00
10946;BME280;5525;42.648;23.368;2024-01-11T02:51:56;95568.16;;;-6.56;100.00
10946;BME280;5525;42.648;23.368;2024-01-11T02:54:23;95565.53;;;-6.56;100.00
10946;BME280;5525;42.648;23.368;2024-01-11T02:56:50;95561.16;;;-6.43;100.00
10946;BME280;5525;42.648;23.368;2024-01-11T02:59:18;95563.78;;;-6.36;100.00
10946;BME280;5525;42.648;23.368;2024-01-11T03:01:45;95572.69;;;-6.37;100.00
10946;BME280;5525;42.648;23.368;2024-01-11T03:04:12;95563.81;;;-6.30;100.00
10946;BME280;5525;42.648;23.368;2024-01-11T03:06:40;95560.34;;;-6.30;100.00
10946;BME280;5525;42.648;23.368;2024-01-11T03:09:07;95562.06;;;-6.70;100.00
10946;BME280;5525;42.648;23.368;2024-01-11T03:11:34;95564.69;;;-6.76;100.00
10946;BME280;5525;42.648;23.368;2024-01-11T03:14:02;95559.03;;;-6.73;100.00
10946;BME280;5525;42.648;23.368;2024-01-11T03:16:31;95558.19;;;-6.80;100.00
10946;BME280;5525;42.648;23.368;2024-01-11T03:18:57;95562.44;;;-6.73;100.00
10946;BME280;5525;42.648;23.368;2024-01-11T03:21:24;95555.00;;;-6.69;100.00
10946;BME280;5525;42.648;23.368;2024-01-11T03:23:51;95550.06;;;-6.85;100.00
10946;BME280;5525;42.648;23.368;2024-01-11T03:26:18;95557.94;;;-6.85;100.00
10946;BME280;5525;42.648;23.368;2024-01-11T03:28:45;95550.25;;;-6.93;100.00
10946;BME280;5525;42.648;23.368;2024-01-11T03:31:12;95556.25;;;-7.06;100.00
10946;BME280;5525;42.648;23.368;2024-01-11T03:33:40;95557.63;;;-7.10;100.00
10946;BME280;5525;42.648;23.368;2024-01-11T03:36:07;95552.56;;;-7.12;100.00
10946;BME280;5525;42.648;23.368;2024-01-11T03:38:34;95545.41;;;-6.96;100.00
10946;BME280;5525;42.648;23.368;2024-01-11T03:41:01;95550.19;;;-7.07;100.00
10946;BME280;5525;42.648;23.368;2024-01-11T03:43:28;95555.28;;;-6.98;100.00
10946;BME280;5525;42.648;23.368;2024-01-11T03:45:55;95556.47;;;-7.01;100.00
10946;BME280;5525;42.648;23.368;2024-01-11T03:48:21;95554.25;;;-6.97;100.00
10946;BME280;5525;42.648;23.368;2024-01-11T03:50:50;95553.13;;;-6.82;100.00
10946;BME280;5525;42.648;23.368;2024-01-11T03:53:17;95547.91;;;-6.75;100.00
10946;BME280;5525;42.648;23.368;2024-01-11T03:55:43;95535.22;;;-6.72;100.00
10946;BME280;5525;42.648;23.368;2024-01-11T03:58:10;95540.84;;;-6.68;100.00
10946;BME280;5525;42.648;23.368;2024-01-11T04:00:37;95548.56;;;-6.60;100.00
10946;BME280;5525;42.648;23.368;2024-01-11T04:03:06;95546.16;;;-6.55;100.00
10946;BME280;5525;42.648;23.368;2024-01-11T04:05:33;95541.13;;;-6.50;100.00
10946;BME280;5525;42.648;23.368;2024-01-11T04:08:03;95538.50;;;-6.44;100.00
10946;BME280;5525;42.648;23.368;2024-01-11T04:10:29;95540.94;;;-6.49;100.00
10946;BME280;5525;42.648;23.368;2024-01-11T04:12:55;95545.38;;;-6.49;100.00
10946;BME280;5525;42.648;23.368;2024-01-11T04:15:22;95538.50;;;-6.44;100.00
10946;BME280;5525;42.648;23.368;2024-01-11T04:17:49;95540.28;;;-6.57;100.00
10946;BME280;5525;42.648;23.368;2024-01-11T04:20:16;95531.34;;;-6.76;100.00
10946;BME280;5525;42.648;23.368;2024-01-11T04:22:43;95531.41;;;-6.63;100.00
10946;BME280;5525;42.648;23.368;2024-01-11T04:25:11;95522.56;;;-6.49;100.00
10946;BME280;5525;42.648;23.368;2024-01-11T04:27:38;95528.19;;;-6.45;100.00
10946;BME280;5525;42.648;23.368;2024-01-11T04:30:06;95519.94;;;-6.49;100.00
10946;BME280;5525;42.648;23.368;2024-01-11T04:32:33;95510.44;;;-6.43;100.00
10946;BME280;5525;42.648;23.368;2024-01-11T04:34:59;95519.31;;;-6.38;100.00
10946;BME280;5525;42.648;23.368;2024-01-11T04:37:26;95522.53;;;-6.42;100.00
10946;BME280;5525;42.648;23.368;2024-01-11T04:39:53;95528.34;;;-6.66;100.00
10946;BME280;5525;42.648;23.368;2024-01-11T04:42:21;95521.88;;;-6.64;100.00
10946;BME280;5525;42.648;23.368;2024-01-11T04:44:48;95539.03;;;-6.68;100.00
10946;BME280;5525;42.648;23.368;2024-01-11T04:47:14;95538.97;;;-6.81;100.00
10946;BME280;5525;42.648;23.368;2024-01-11T04:49:41;95533.69;;;-6.94;100.00
10946;BME280;5525;42.648;23.368;2024-01-11T04:52:08;95534.81;;;-7.10;100.00
10946;BME280;5525;42.648;23.368;2024-01-11T04:54:35;95534.72;;;-6.95;100.00
10946;BME280;5525;42.648;23.368;2024-01-11T04:57:02;95540.84;;;-6.75;100.00
10946;BME280;5525;42.648;23.368;2024-01-11T04:59:30;95532.97;;;-6.75;100.00
10946;BME280;5525;42.648;23.368;2024-01-11T05:01:57;95542.91;;;-6.57;100.00
10946;BME280;5525;42.648;23.368;2024-01-11T05:04:23;95533.44;;;-6.45;100.00
10946;BME280;5525;42.648;23.368;2024-01-11T05:06:51;95538.13;;;-6.34;100.00
10946;BME280;5525;42.648;23.368;2024-01-11T05:09:18;95538.34;;;-6.29;100.00
10946;BME280;5525;42.648;23.368;2024-01-11T05:11:44;95529.66;;;-6.23;100.00
10946;BME280;5525;42.648;23.368;2024-01-11T05:14:11;95532.66;;;-6.39;100.00
10946;BME280;5525;42.648;23.368;2024-01-11T05:16:39;95534.47;;;-6.46;100.00
10946;BME280;5525;42.648;23.368;2024-01-11T05:19:06;95527.00;;;-6.43;100.00
10946;BME280;5525;42.648;23.368;2024-01-11T05:21:33;95526.81;;;-6.35;100.00
10946;BME280;5525;42.648;23.368;2024-01-11T05:24:01;95518.94;;;-6.41;100.00
10946;BME280;5525;42.648;23.368;2024-01-11T05:26:27;95518.06;;;-6.61;100.00
10946;BME280;5525;42.648;23.368;2024-01-11T05:28:54;95518.63;;;-6.72;100.00
10946;BME280;5525;42.648;23.368;2024-01-11T05:31:21;95512.97;;;-6.76;100.00
10946;BME280;5525;42.648;23.368;2024-01-11T05:33:49;95505.31;;;-6.71;100.00
10946;BME280;5525;42.648;23.368;2024-01-11T05:36:16;95510.09;;;-6.81;100.00
10946;BME280;5525;42.648;23.368;2024-01-11T05:38:43;95517.38;;;-6.83;100.00
10946;BME280;5525;42.648;23.368;2024-01-11T05:41:09;95508.28;;;-6.87;100.00
10946;BME280;5525;42.648;23.368;2024-01-11T05:43:37;95507.28;;;-6.79;100.00
10946;BME280;5525;42.648;23.368;2024-01-11T05:46:04;95511.97;;;-6.75;100.00
10946;BME280;5525;42.648;23.368;2024-01-11T05:48:32;95501.66;;;-6.70;100.00
10946;BME280;5525;42.648;23.368;2024-01-11T05:51:00;95504.13;;;-6.55;100.00
10946;BME280;5525;42.648;23.368;2024-01-11T05:53:27;95500.06;;;-6.58;100.00
10946;BME280;5525;42.648;23.368;2024-01-11T05:55:54;95504.34;;;-6.44;100.00
10946;BME280;5525;42.648;23.368;2024-01-11T05:58:21;95488.84;;;-6.26;100.00
10946;BME280;5525;42.648;23.368;2024-01-11T06:00:48;95488.84;;;-6.26;100.00
10946;BME280;5525;42.648;23.368;2024-01-11T06:03:15;95490.06;;;-6.22;100.00
10946;BME280;5525;42.648;23.368;2024-01-11T06:05:42;95488.03;;;-6.20;100.00
10946;BME280;5525;42.648;23.368;2024-01-11T06:08:10;95483.38;;;-6.31;100.00
10946;BME280;5525;42.648;23.368;2024-01-11T06:10:37;95491.03;;;-6.49;100.00
10946;BME280;5525;42.648;23.368;2024-01-11T06:13:03;95485.16;;;-6.51;100.00
10946;BME280;5525;42.648;23.368;2024-01-11T06:15:31;95494.66;;;-6.50;100.00
10946;BME280;5525;42.648;23.368;2024-01-11T06:17:58;95486.34;;;-6.60;100.00
10946;BME280;5525;42.648;23.368;2024-01-11T06:20:25;95494.44;;;-6.48;100.00
10946;BME280;5525;42.648;23.368;2024-01-11T06:22:52;95495.91;;;-6.33;100.00
10946;BME280;5525;42.648;23.368;2024-01-11T06:25:20;95491.47;;;-6.13;100.00
10946;BME280;5525;42.648;23.368;2024-01-11T06:27:47;95482.19;;;-6.15;100.00
10946;BME280;5525;42.648;23.368;2024-01-11T06:30:14;95484.59;;;-6.07;100.00
10946;BME280;5525;42.648;23.368;2024-01-11T06:32:41;95477.53;;;-6.00;100.00
10946;BME280;5525;42.648;23.368;2024-01-11T06:35:08;95472.47;;;-6.08;100.00
10946;BME280;5525;42.648;23.368;2024-01-11T06:37:35;95477.50;;;-6.13;100.00
10946;BME280;5525;42.648;23.368;2024-01-11T06:40:02;95474.47;;;-6.10;100.00
10946;BME280;5525;42.648;23.368;2024-01-11T06:42:30;95465.41;;;-6.01;100.00
10946;BME280;5525;42.648;23.368;2024-01-11T06:44:57;95469.19;;;-5.71;100.00
10946;BME280;5525;42.648;23.368;2024-01-11T06:47:24;95458.03;;;-5.60;100.00
10946;BME280;5525;42.648;23.368;2024-01-11T06:49:51;95456.19;;;-5.53;100.00
10946;BME280;5525;42.648;23.368;2024-01-11T06:52:17;95462.88;;;-5.51;100.00
10946;BME280;5525;42.648;23.368;2024-01-11T06:54:45;95460.06;;;-5.49;100.00
10946;BME280;5525;42.648;23.368;2024-01-11T06:57:11;95456.25;;;-5.79;100.00
10946;BME280;5525;42.648;23.368;2024-01-11T06:59:39;95459.09;;;-5.87;100.00
10946;BME280;5525;42.648;23.368;2024-01-11T07:02:06;95458.31;;;-5.94;100.00
10946;BME280;5525;42.648;23.368;2024-01-11T07:04:33;95459.69;;;-5.72;100.00
10946;BME280;5525;42.648;23.368;2024-01-11T07:07:00;95468.63;;;-5.86;100.00
10946;BME280;5525;42.648;23.368;2024-01-11T07:09:29;95456.69;;;-5.82;100.00
10946;BME280;5525;42.648;23.368;2024-01-11T07:11:56;95463.16;;;-5.85;100.00
10946;BME280;5525;42.648;23.368;2024-01-11T07:14:23;95460.34;;;-5.90;100.00
10946;BME280;5525;42.648;23.368;2024-01-11T07:16:52;95458.09;;;-5.93;100.00
10946;BME280;5525;42.648;23.368;2024-01-11T07:19:19;95464.97;;;-5.92;100.00
10946;BME280;5525;42.648;23.368;2024-01-11T07:21:46;95462.53;;;-5.80;100.00
10946;BME280;5525;42.648;23.368;2024-01-11T07:24:12;95458.72;;;-5.97;100.00
10946;BME280;5525;42.648;23.368;2024-01-11T07:26:39;95463.38;;;-5.86;100.00
10946;BME280;5525;42.648;23.368;2024-01-11T07:29:06;95464.13;;;-5.73;100.00
10946;BME280;5525;42.648;23.368;2024-01-11T07:31:33;95454.19;;;-5.64;100.00
10946;BME280;5525;42.648;23.368;2024-01-11T07:34:01;95454.19;;;-5.58;100.00
10946;BME280;5525;42.648;23.368;2024-01-11T07:36:28;95458.00;;;-5.41;100.00
10946;BME280;5525;42.648;23.368;2024-01-11T07:38:56;95456.75;;;-5.25;100.00
10946;BME280;5525;42.648;23.368;2024-01-11T07:41:22;95457.91;;;-5.08;100.00
10946;BME280;5525;42.648;23.368;2024-01-11T07:43:49;95458.03;;;-4.96;100.00
10946;BME280;5525;42.648;23.368;2024-01-11T07:46:16;95451.56;;;-4.94;100.00
10946;BME280;5525;42.648;23.368;2024-01-11T07:48:43;95458.34;;;-4.73;100.00
10946;BME280;5525;42.648;23.368;2024-01-11T07:51:11;95447.94;;;-4.62;100.00
10946;BME280;5525;42.648;23.368;2024-01-11T07:53:38;95436.78;;;-4.57;100.00
10946;BME280;5525;42.648;23.368;2024-01-11T07:56:06;95444.75;;;-4.70;100.00
10946;BME280;5525;42.648;23.368;2024-01-11T07:58:33;95441.41;;;-4.53;100.00
10946;BME280;5525;42.648;23.368;2024-01-11T08:01:01;95446.00;;;-4.42;100.00
10946;BME280;5525;42.648;23.368;2024-01-11T08:03:28;95441.28;;;-4.64;100.00
10946;BME280;5525;42.648;23.368;2024-01-11T08:05:55;95444.41;;;-4.43;100.00
10946;BME280;5525;42.648;23.368;2024-01-11T08:08:23;95441.28;;;-4.33;100.00
10946;BME280;5525;42.648;23.368;2024-01-11T08:10:50;95441.25;;;-4.27;100.00
10946;BME280;5525;42.648;23.368;2024-01-11T08:13:17;95433.03;;;-4.12;100.00
10946;BME280;5525;42.648;23.368;2024-01-11T08:15:44;95437.16;;;-3.98;100.00
10946;BME280;5525;42.648;23.368;2024-01-11T08:18:10;95441.34;;;-3.66;100.00
10946;BME280;5525;42.648;23.368;2024-01-11T08:20:38;95422.84;;;-3.41;100.00
10946;BME280;5525;42.648;23.368;2024-01-11T08:23:05;95428.81;;;-3.71;100.00
10946;BME280;5525;42.648;23.368;2024-01-11T08:25:33;95424.38;;;-3.77;100.00
10946;BME280;5525;42.648;23.368;2024-01-11T08:28:00;95418.78;;;-3.44;100.00
10946;BME280;5525;42.648;23.368;2024-01-11T08:30:28;95423.34;;;-3.15;100.00
10946;BME280;5525;42.648;23.368;2024-01-11T08:32:55;95414.75;;;-2.92;100.00
10946;BME280;5525;42.648;23.368;2024-01-11T08:35:22;95417.38;;;-3.10;100.00
10946;BME280;5525;42.648;23.368;2024-01-11T08:37:48;95422.28;;;-2.78;100.00
10946;BME280;5525;42.648;23.368;2024-01-11T08:40:16;95417.41;;;-2.63;100.00
10946;BME280;5525;42.648;23.368;2024-01-11T08:42:44;95425.75;;;-2.48;100.00
10946;BME280;5525;42.648;23.368;2024-01-11T08:45:11;95418.50;;;-2.52;100.00
10946;BME280;5525;42.648;23.368;2024-01-11T08:47:43;95422.38;;;-3.02;100.00
10946;BME280;5525;42.648;23.368;2024-01-11T08:50:12;95412.81;;;-2.85;100.00
10946;BME280;5525;42.648;23.368;2024-01-11T08:52:39;95408.78;;;-2.58;100.00
10946;BME280;5525;42.648;23.368;2024-01-11T08:55:07;95408.66;;;-2.93;100.00
10946;BME280;5525;42.648;23.368;2024-01-11T08:57:34;95405.28;;;-2.70;100.00
10946;BME280;5525;42.648;23.368;2024-01-11T09:00:02;95403.69;;;-2.71;100.00
10946;BME280;5525;42.648;23.368;2024-01-11T09:02:31;95395.06;;;-2.78;100.00
10946;BME280;5525;42.648;23.368;2024-01-11T09:04:58;95388.94;;;-3.08;100.00
10946;BME280;5525;42.648;23.368;2024-01-11T09:07:24;95396.47;;;-2.94;100.00
10946;BME280;5525;42.648;23.368;2024-01-11T09:09:51;95393.41;;;-3.09;100.00
10946;BME280;5525;42.648;23.368;2024-01-11T09:12:19;95390.47;;;-3.01;100.00
10946;BME280;5525;42.648;23.368;2024-01-11T09:14:47;95378.78;;;-2.64;100.00
10946;BME280;5525;42.648;23.368;2024-01-11T09:17:15;95370.91;;;-2.52;100.00
10946;BME280;5525;42.648;23.368;2024-01-11T09:19:42;95377.09;;;-2.88;100.00
10946;BME280;5525;42.648;23.368;2024-01-11T09:22:09;95366.84;;;-2.55;100.00
10946;BME280;5525;42.648;23.368;2024-01-11T09:24:36;95370.28;;;-2.13;100.00
10946;BME280;5525;42.648;23.368;2024-01-11T09:27:03;95362.63;;;-2.44;100.00
10946;BME280;5525;42.648;23.368;2024-01-11T09:29:30;95361.03;;;-2.34;100.00
10946;BME280;5525;42.648;23.368;2024-01-11T09:31:58;95355.59;;;-1.86;100.00
10946;BME280;5525;42.648;23.368;2024-01-11T09:34:26;95349.00;;;-1.60;100.00
10946;BME280;5525;42.648;23.368;2024-01-11T09:36:53;95346.81;;;-1.98;100.00
10946;BME280;5525;42.648;23.368;2024-01-11T09:39:24;95340.84;;;-1.59;100.00
10946;BME280;5525;42.648;23.368;2024-01-11T09:41:52;95346.50;;;-1.16;100.00
10946;BME280;5525;42.648;23.368;2024-01-11T09:44:24;95331.44;;;-1.27;100.00
10946;BME280;5525;42.648;23.368;2024-01-11T09:46:52;95316.34;;;-0.87;100.00
10946;BME280;5525;42.648;23.368;2024-01-11T09:49:21;95309.50;;;-0.83;100.00
10946;BME280;5525;42.648;23.368;2024-01-11T09:51:50;95304.69;;;-1.14;100.00
10946;BME280;5525;42.648;23.368;2024-01-11T09:54:19;95309.03;;;-1.47;100.00
10946;BME280;5525;42.648;23.368;2024-01-11T09:56:46;95300.91;;;-0.90;100.00
10946;BME280;5525;42.648;23.368;2024-01-11T09:59:15;95291.88;;;-0.61;100.00
10946;BME280;5525;42.648;23.368;2024-01-11T10:01:45;95293.41;;;-0.65;100.00
10946;BME280;5525;42.648;23.368;2024-01-11T10:04:13;95296.25;;;-0.83;100.00
10946;BME280;5525;42.648;23.368;2024-01-11T10:06:41;95285.38;;;-0.53;100.00
10946;BME280;5525;42.648;23.368;2024-01-11T10:09:10;95285.47;;;-0.32;100.00
10946;BME280;5525;42.648;23.368;2024-01-11T10:11:37;95286.34;;;-0.26;100.00
10946;BME280;5525;42.648;23.368;2024-01-11T10:14:04;95278.97;;;-0.41;100.00
10946;BME280;5525;42.648;23.368;2024-01-11T10:16:32;95274.06;;;-0.16;100.00
10946;BME280;5525;42.648;23.368;2024-01-11T10:18:58;95261.59;;;-0.65;100.00
10946;BME280;5525;42.648;23.368;2024-01-11T10:21:27;95261.78;;;-0.83;100.00
10946;BME280;5525;42.648;23.368;2024-01-11T10:23:54;95260.22;;;-0.95;100.00
10946;BME280;5525;42.648;23.368;2024-01-11T10:26:22;95263.75;;;-0.29;100.00
10946;BME280;5525;42.648;23.368;2024-01-11T10:28:49;95258.50;;;-0.07;100.00
10946;BME280;5525;42.648;23.368;2024-01-11T10:31:15;95244.06;;;0.22;100.00
10946;BME280;5525;42.648;23.368;2024-01-11T10:33:45;95242.66;;;0.36;100.00
10946;BME280;5525;42.648;23.368;2024-01-11T10:36:11;95236.09;;;0.22;100.00
10946;BME280;5525;42.648;23.368;2024-01-11T10:38:39;95226.44;;;0.16;100.00
10946;BME280;5525;42.648;23.368;2024-01-11T10:41:06;95226.59;;;0.48;100.00
10946;BME280;5525;42.648;23.368;2024-01-11T10:43:37;95214.41;;;0.73;100.00
10946;BME280;5525;42.648;23.368;2024-01-11T10:46:05;95211.63;;;0.42;100.00
10946;BME280;5525;42.648;23.368;2024-01-11T10:48:38;95213.50;;;0.41;100.00
10946;BME280;5525;42.648;23.368;2024-01-11T10:51:08;95205.69;;;0.56;100.00
10946;BME280;5525;42.648;23.368;2024-01-11T10:53:41;95201.81;;;0.21;100.00
10946;BME280;5525;42.648;23.368;2024-01-11T10:56:10;95200.72;;;0.60;100.00
10946;BME280;5525;42.648;23.368;2024-01-11T10:58:40;95201.38;;;0.50;100.00
10946;BME280;5525;42.648;23.368;2024-01-11T11:01:08;95194.38;;;0.66;100.00
10946;BME280;5525;42.648;23.368;2024-01-11T11:03:36;95186.91;;;0.63;100.00
10946;BME280;5525;42.648;23.368;2024-01-11T11:06:05;95183.97;;;0.86;100.00
10946;BME280;5525;42.648;23.368;2024-01-11T11:08:32;95170.13;;;0.84;100.00
10946;BME280;5525;42.648;23.368;2024-01-11T11:11:01;95173.41;;;0.96;100.00
10946;BME280;5525;42.648;23.368;2024-01-11T11:13:30;95171.31;;;1.24;100.00
10946;BME280;5525;42.648;23.368;2024-01-11T11:15:59;95160.69;;;0.98;100.00
10946;BME280;5525;42.648;23.368;2024-01-11T11:18:26;95143.53;;;1.10;100.00
10946;BME280;5525;42.648;23.368;2024-01-11T11:20:52;95144.78;;;1.03;100.00
10946;BME280;5525;42.648;23.368;2024-01-11T11:23:19;95137.63;;;1.40;100.00
10946;BME280;5525;42.648;23.368;2024-01-11T11:25:48;95120.88;;;1.39;100.00
10946;BME280;5525;42.648;23.368;2024-01-11T11:28:17;95128.75;;;1.24;100.00
10946;BME280;5525;42.648;23.368;2024-01-11T11:30:44;95127.03;;;1.45;100.00
10946;BME280;5525;42.648;23.368;2024-01-11T11:33:18;95128.94;;;1.54;100.00
10946;BME280;5525;42.648;23.368;2024-01-11T11:35:46;95115.00;;;1.37;100.00
10946;BME280;5525;42.648;23.368;2024-01-11T11:38:17;95114.28;;;1.47;100.00
10946;BME280;5525;42.648;23.368;2024-01-11T11:40:46;95102.00;;;1.41;100.00
10946;BME280;5525;42.648;23.368;2024-01-11T11:43:15;95104.00;;;1.65;100.00
10946;BME280;5525;42.648;23.368;2024-01-11T11:45:44;95098.72;;;1.75;100.00
10946;BME280;5525;42.648;23.368;2024-01-11T11:48:51;95089.00;;;2.01;100.00
10946;BME280;5525;42.648;23.368;2024-01-11T11:51:20;95100.06;;;1.31;100.00
10946;BME280;5525;42.648;23.368;2024-01-11T11:53:48;95086.19;;;1.71;100.00
10946;BME280;5525;42.648;23.368;2024-01-11T11:56:17;95090.34;;;2.04;100.00
10946;BME280;5525;42.648;23.368;2024-01-11T11:58:45;95091.84;;;1.80;100.00
10946;BME280;5525;42.648;23.368;2024-01-11T12:01:14;95072.94;;;1.81;100.00
10946;BME280;5525;42.648;23.368;2024-01-11T12:03:43;95080.03;;;1.60;100.00
10946;BME280;5525;42.648;23.368;2024-01-11T12:06:17;95077.19;;;1.82;100.00
10946;BME280;5525;42.648;23.368;2024-01-11T12:08:45;95069.34;;;2.07;100.00
10946;BME280;5525;42.648;23.368;2024-01-11T12:11:18;95070.69;;;2.15;100.00
10946;BME280;5525;42.648;23.368;2024-01-11T12:13:46;95069.31;;;2.02;100.00
10946;BME280;5525;42.648;23.368;2024-01-11T12:16:13;95049.63;;;2.08;100.00
10946;BME280;5525;42.648;23.368;2024-01-11T12:18:40;95056.84;;;2.28;100.00
10946;BME280;5525;42.648;23.368;2024-01-11T12:21:07;95044.88;;;2.25;100.00
10946;BME280;5525;42.648;23.368;2024-01-11T12:23:38;95049.69;;;2.43;100.00
10946;BME280;5525;42.648;23.368;2024-01-11T12:26:06;95045.69;;;2.36;100.00
10946;BME280;5525;42.648;23.368;2024-01-11T12:28:38;95040.88;;;2.33;100.00
10946;BME280;5525;42.648;23.368;2024-01-11T12:31:06;95033.19;;;2.46;100.00
10946;BME280;5525;42.648;23.368;2024-01-11T12:33:32;95028.94;;;2.45;100.00
10946;BME280;5525;42.648;23.368;2024-01-11T12:36:01;95028.94;;;2.60;100.00
10946;BME280;5525;42.648;23.368;2024-01-11T12:38:27;95018.00;;;2.77;100.00
10946;BME280;5525;42.648;23.368;2024-01-11T12:40:58;95016.41;;;3.21;100.00
10946;BME280;5525;42.648;23.368;2024-01-11T12:43:25;95008.34;;;4.15;100.00
10946;BME280;5525;42.648;23.368;2024-01-11T12:45:52;95012.13;;;5.48;97.89
10946;BME280;5525;42.648;23.368;2024-01-11T12:48:20;95009.19;;;6.95;88.86
10946;BME280;5525;42.648;23.368;2024-01-11T12:50:47;94988.56;;;8.35;76.25
10946;BME280;5525;42.648;23.368;2024-01-11T12:53:14;94984.75;;;8.50;69.71
10946;BME280;5525;42.648;23.368;2024-01-11T12:55:44;94993.78;;;9.56;65.01